Latitude: N 50° 09' 49" Longitude: W 05° 11' 53" Elevation: 168m ASL

There are 29 visitors online

Adverts
Latest METAR Data

Below are the latest METARs ("Meteorological Services to Airmen Reports"), for RNAS Culdrose and Newquay Airport.

EGDR - RNAS Culdrose
Distance from station: SW 6mi, 9km
Updated: Wed, 28-Jun-2017 3:50am BST
Light rain, Mostly cloudy
Light rain, Mostly cloudy
 Wind from NW
Wind: NW 7 mph , 11 km/h
Temperature: 57°F , 14°C
Dew Point: 55°F , 13°C
Humidity: 94%
Barometer: 29.53 inHg , 1000 hPa
Summary: Light Rain
Clouds: Mostly Cloudy
Visibility: 5 miles , 8 km
Cloud details: Few Clouds 500 ft
Partly Cloudy 1200 ft
Mostly Cloudy 2000 ft
2017/06/28 02:50 EGDR 280250Z 31006KT 8000 -RA FEW005 SCT012 BKN020 14/13 Q1000 GRN
EGHQ - Newquay Airport
Distance from station: NE 21mi, 34km
Updated: Tue, 27-Jun-2017 9:50pm BST
NOT Current
Partly Cloudy
Partly Cloudy
 Wind from W
Wind: W 7 mph , 11 km/h
Temperature: 57°F , 14°C
Dew Point: 55°F , 13°C
Humidity: 94%
Barometer: 29.62 inHg , 1003 hPa
Clouds: Partly Cloudy
Visibility: 4 miles , 6 km
Cloud details: Partly Cloudy 200 ft
Partly Cloudy 1000 ft
2017/06/27 20:50 EGHQ 272050Z 27006KT 6000 SCT002 SCT010 14/13 Q1003
 
EGTE - Exeter Airport
Distance from station: ENE 88mi, 141km
Updated: Wed, 28-Jun-2017 2:20am BST
NOT Current
Light rain, Mostly cloudy
Light rain, Mostly cloudy
 Wind from WSW
Wind: WSW 2 mph , 4 km/h
Temperature: 59°F , 15°C
Dew Point: 59°F , 15°C
Humidity: 100%
Barometer: 29.53 inHg , 1000 hPa
Summary: Light Rain
Clouds: Mostly Cloudy
Visibility: 5 miles , 8 km
Cloud details: Partly Cloudy 1000 ft
Mostly Cloudy 2200 ft
2017/06/28 01:20 EGTE 280120Z 25002KT 8000 -RA SCT010 BKN022 15/15 Q1000
EGHE - St Marys, IOS
Distance from station: W 51mi, 82km
Updated: Tue, 27-Jun-2017 5:50pm BST
NOT Current
Mostly Cloudy
Mostly Cloudy
 Wind from W
Wind: W 7 mph , 11 km/h
Temperature: 59°F , 15°C
Dew Point: 59°F , 15°C
Humidity: 100%
Barometer: 29.65 inHg , 1004 hPa
Clouds: Mostly Cloudy
Visibility: 6 miles , 10 km
Cloud details: Few Clouds 700 ft
Partly Cloudy 1300 ft
Mostly Cloudy 3200 ft
2017/06/27 16:50 EGHE 271650Z 27006KT 9999 FEW007 SCT013 BKN032 15/15 Q1004

Metar display script from Saratoga-Weather.org

UK - WEATHER STATION TOPSITES - UK World Weather Websites

This is a private weather station, never base important decisions or events on data from this weather station. Although every effort has been made to make the data as accurate as possible it does not meet MetOffice standards. It is proved as a guide of local weather conditions. We accept no liability for any loss which may arise from use of the data.

Copyright © Carnkie Weather 2009 - 2017.